Terminal Aerodrome Forecast
Issued by NWS

Home | Current Version | Previous Version | Text Only | Print | Product List | Glossary On
Versions: 1 2 3 4 5 6 7 8 9 10 11 12 13
000
FTUS42 TJSJ 030531
TAFJMZ
TAF
TJMZ 030531Z 0306/0406 06006KT P6SM SCT025 SCT040
     FM031530 27010KT P6SM VCSH SCT025 BKN040
     FM032300 08005KT P6SM FEW030 SCT060
      AMD NOT SKED=

USA.gov is the U.S. government's official web portal to all federal, state and local government web resources and services.